Главная страница
METAR-TAF:

METAR-TAF

Аэропорты :

Уральск, Казахстан

широта: 51-15N, долгота: 051-17E, высота над уровнем моря: 36 м

Текущие метеонаблюдения

Эта сводка был подготовлена 10 минут назад, в 03:00 UTC
Ветер 6 Узел от южный-юго-западный
Температура 17°C
Влажность 48%
Давление 1015 hPa
Видимость 10 км и более
Нет облачности ниже 1500 м, и нет кучево-дождевой облачности

METAR: UARR 170300Z 20003MPS CAVOK 17/06 Q1015 R22/CLRD70 NOSIG RMK QFE758/1011

Время: 08:10 (03:10 UTC)

Прогноз

Эта сводка был подготовлена 1 час и 10 минут назад, в 02:00 UTC
Прогноз действительный с 17-го 03 UTC до 17-го 12 UTC
Ветер 4 Узел переменных направлений
Видимость 10 км и более
Отдельные облака на высоте 3300 фута
временами
С 17-го 08 UTC до 17-го 12 UTC
Ветер 10 Узел от северо-западный с порывами до 19 Узел
Отдельные облака на высоте 3300 фута, Кучево-дождевые.

TAF: UARR 170200Z 1703/1712 VRB02MPS 9999 SCT033 TEMPO 1708/1712 32005G10MPS SCT033CB

Метеонаблюдения и прогнозы для более 4000 аэропортов (сводки METAR и TAF).

Имеющиеся станции представлены на карте желтыми и красными точками.

Чтобы увидеть название станции, наведите на нее мышь.

Затем щелкните, чтобы увидеть метеонаблюдения и метеопрогнозы.

Управление картой: чтобы увеличить масштаб, щелкните зеленые кнопки с черным крестиком; чтобы уменьшить масштаб, щелкните зеленую кнопку с тире; для просмотра соседних карт щелкайте зеленые стрелки.


METAR-TAF: